Time;durP1;ratioP1;P1;durP2;ratioP2;P2;SDS_P1;SDS_P2;PMS_P1;PMS_P2;Temp;Humidity;BMP_temperature;BMP_pressure;BME280_temperature;BME280_humidity;BME280_pressure;Samples;Min_cycle;Max_cycle;Signal;HPM_P1;HPM_P2
2022/06/27 00:00:17;;;;;;;8.02;5.40;;;;;;;;;;5031297;28;20030;-63
2022/06/27 00:02:43;;;;;;;7.07;5.63;;;;;;;;;;5024859;28;20037;-62
2022/06/27 00:05:12;;;;;;;8.23;5.32;;;;;;;;;;5028577;28;20030;-64
2022/06/27 00:07:38;;;;;;;8.52;5.82;;;;;;;;;;5029589;28;20041;-64
2022/06/27 00:10:05;;;;;;;8.52;5.60;;;;;;;;;;5032336;28;20092;-64
2022/06/27 00:12:30;;;;;;;7.97;5.72;;;;;;;;;;5026692;28;20038;-63
2022/06/27 00:14:56;;;;;;;8.85;5.25;;;;;;;;;;5031397;28;20032;-63
2022/06/27 00:17:21;;;;;;;7.75;5.90;;;;;;;;;;5026194;28;20033;-64
2022/06/27 00:19:47;;;;;;;9.85;6.20;;;;;;;;;;5014018;28;20528;-63
2022/06/27 00:22:12;;;;;;;8.73;5.80;;;;;;;;;;5030741;28;20036;-64
2022/06/27 00:24:38;;;;;;;8.57;5.65;;;;;;;;;;5031816;28;20029;-63
2022/06/27 00:27:04;;;;;;;7.70;5.82;;;;;;;;;;5017338;28;20042;-63
2022/06/27 00:29:29;;;;;;;8.80;6.13;;;;;;;;;;5012113;28;20052;-63
2022/06/27 00:31:54;;;;;;;10.77;6.50;;;;;;;;;;5016264;28;20043;-64
2022/06/27 00:34:20;;;;;;;12.18;6.57;;;;;;;;;;5013139;28;20041;-63
2022/06/27 00:36:45;;;;;;;8.88;6.53;;;;;;;;;;5023579;28;20128;-63
2022/06/27 00:39:11;;;;;;;7.50;6.18;;;;;;;;;;5031772;28;20025;-63
2022/06/27 00:41:36;;;;;;;9.23;6.35;;;;;;;;;;5029712;28;20048;-64
2022/06/27 00:44:02;;;;;;;8.02;6.30;;;;;;;;;;5029832;28;20037;-63
2022/06/27 00:46:29;;;;;;;6.45;5.80;;;;;;;;;;5029021;28;20040;-63
2022/06/27 00:48:55;;;;;;;7.82;6.40;;;;;;;;;;5018144;28;20049;-64
2022/06/27 00:51:20;;;;;;;11.43;6.05;;;;;;;;;;5024230;28;20026;-63
2022/06/27 00:53:46;;;;;;;7.82;5.82;;;;;;;;;;5030365;28;20382;-66
2022/06/27 00:56:12;;;;;;;9.52;6.28;;;;;;;;;;5014006;28;20459;-66
2022/06/27 00:58:37;;;;;;;9.82;6.05;;;;;;;;;;5027028;28;20037;-63
2022/06/27 01:01:03;;;;;;;8.68;5.80;;;;;;;;;;5032045;28;20490;-63
2022/06/27 01:03:29;;;;;;;11.32;5.72;;;;;;;;;;5022288;28;20122;-63
2022/06/27 01:05:56;;;;;;;6.38;5.28;;;;;;;;;;5024388;28;20109;-62
2022/06/27 01:08:25;;;;;;;10.23;6.15;;;;;;;;;;5027150;28;20037;-63
2022/06/27 01:10:51;;;;;;;9.70;5.35;;;;;;;;;;5031000;28;20496;-63
2022/06/27 01:13:17;;;;;;;9.25;5.95;;;;;;;;;;5026149;28;20087;-63
2022/06/27 01:15:44;;;;;;;7.10;5.63;;;;;;;;;;5023129;28;20038;-63
2022/06/27 01:18:10;;;;;;;7.72;6.10;;;;;;;;;;5022719;28;20147;-63
2022/06/27 01:20:35;;;;;;;8.55;6.43;;;;;;;;;;5028365;28;20484;-63
2022/06/27 01:23:01;;;;;;;11.23;6.55;;;;;;;;;;5032397;28;20041;-64
2022/06/27 01:25:26;;;;;;;9.95;6.80;;;;;;;;;;5016284;28;20087;-63
2022/06/27 01:27:52;;;;;;;8.90;6.32;;;;;;;;;;5025268;28;20500;-63
2022/06/27 01:30:19;;;;;;;12.40;6.90;;;;;;;;;;5032820;28;20081;-63
2022/06/27 01:32:44;;;;;;;11.40;6.93;;;;;;;;;;5006953;28;20538;-63
2022/06/27 01:35:09;;;;;;;9.45;6.85;;;;;;;;;;5000387;28;20746;-63
2022/06/27 01:37:35;;;;;;;9.65;6.90;;;;;;;;;;5031099;28;20033;-63
2022/06/27 01:40:01;;;;;;;10.10;7.22;;;;;;;;;;5017541;28;20116;-64
2022/06/27 01:42:28;;;;;;;9.27;7.00;;;;;;;;;;5030084;28;20045;-63
2022/06/27 01:44:53;;;;;;;8.85;6.65;;;;;;;;;;5035022;28;20033;-63
2022/06/27 01:47:19;;;;;;;8.95;6.72;;;;;;;;;;5028728;28;20040;-63
2022/06/27 01:49:44;;;;;;;13.63;7.70;;;;;;;;;;5024710;28;20437;-63
2022/06/27 01:52:14;;;;;;;9.38;7.30;;;;;;;;;;5025714;28;20406;-63
2022/06/27 01:54:40;;;;;;;11.55;7.03;;;;;;;;;;5025115;28;20049;-63
2022/06/27 01:57:08;;;;;;;10.98;7.00;;;;;;;;;;5031325;28;20121;-62
2022/06/27 01:59:34;;;;;;;11.85;6.97;;;;;;;;;;5034573;28;20025;-62
2022/06/27 02:02:02;;;;;;;8.27;6.80;;;;;;;;;;5019006;28;20069;-62
2022/06/27 02:04:29;;;;;;;8.80;6.40;;;;;;;;;;5015532;28;20502;-63
2022/06/27 02:06:56;;;;;;;8.23;6.45;;;;;;;;;;5026220;28;20125;-61
2022/06/27 02:09:22;;;;;;;9.77;6.22;;;;;;;;;;5034148;28;20084;-62
2022/06/27 02:11:51;;;;;;;8.90;6.80;;;;;;;;;;5033004;28;20041;-61
2022/06/27 02:14:20;;;;;;;9.68;6.85;;;;;;;;;;5029335;28;20390;-62
2022/06/27 02:16:46;;;;;;;9.02;6.13;;;;;;;;;;5020101;28;20042;-64
2022/06/27 02:19:14;;;;;;;9.73;6.38;;;;;;;;;;5023562;28;20076;-64
2022/06/27 02:21:40;;;;;;;8.63;6.40;;;;;;;;;;5023373;28;20030;-63
2022/06/27 02:24:05;;;;;;;10.23;5.93;;;;;;;;;;5025706;28;20125;-63
2022/06/27 02:26:31;;;;;;;7.68;6.32;;;;;;;;;;5023769;28;20120;-63
2022/06/27 02:28:58;;;;;;;8.40;5.93;;;;;;;;;;5029782;28;20034;-63
2022/06/27 02:31:24;;;;;;;10.00;6.47;;;;;;;;;;5015418;28;20044;-64
2022/06/27 02:33:51;;;;;;;7.43;5.85;;;;;;;;;;5013719;28;20029;-63
2022/06/27 02:36:19;;;;;;;8.40;6.10;;;;;;;;;;5017574;28;20029;-63
2022/06/27 02:38:50;;;;;;;11.80;6.40;;;;;;;;;;5032946;28;20041;-63
2022/06/27 02:41:17;;;;;;;8.00;5.82;;;;;;;;;;5025909;28;20069;-63
2022/06/27 02:43:55;;;;;;;10.43;6.45;;;;;;;;;;5018522;28;20041;-65
2022/06/27 02:46:20;;;;;;;8.95;6.47;;;;;;;;;;5026558;28;20502;-63
2022/06/27 02:48:50;;;;;;;9.68;6.20;;;;;;;;;;5030651;28;20116;-63
2022/06/27 02:51:20;;;;;;;11.40;6.55;;;;;;;;;;5034241;28;20398;-63
2022/06/27 02:53:59;;;;;;;9.02;6.68;;;;;;;;;;5025133;28;20501;-63
2022/06/27 02:56:27;;;;;;;11.75;6.53;;;;;;;;;;5032280;28;20043;-63
2022/06/27 02:59:16;;;;;;;10.93;6.90;;;;;;;;;;5031802;28;20040;-63
2022/06/27 03:01:43;;;;;;;9.10;6.60;;;;;;;;;;5019108;28;20056;-63
2022/06/27 03:04:09;;;;;;;8.73;6.55;;;;;;;;;;5028222;28;20150;-63
2022/06/27 03:06:35;;;;;;;9.45;6.88;;;;;;;;;;5029101;28;20076;-63
2022/06/27 03:09:00;;;;;;;9.40;6.95;;;;;;;;;;5032239;28;20029;-63
2022/06/27 03:11:26;;;;;;;10.02;7.18;;;;;;;;;;5033603;28;20021;-63
2022/06/27 03:13:53;;;;;;;12.43;7.15;;;;;;;;;;5030021;28;20491;-63
2022/06/27 03:16:21;;;;;;;9.68;7.55;;;;;;;;;;5032023;28;20071;-63
2022/06/27 03:18:48;;;;;;;13.10;7.60;;;;;;;;;;5032860;28;20037;-63
2022/06/27 03:21:13;;;;;;;10.52;7.13;;;;;;;;;;5030856;28;20053;-63
2022/06/27 03:23:40;;;;;;;10.05;7.80;;;;;;;;;;5033040;28;20064;-63
2022/06/27 03:26:05;;;;;;;10.65;7.50;;;;;;;;;;5031401;28;20044;-63
2022/06/27 03:28:31;;;;;;;9.05;7.25;;;;;;;;;;5014911;28;20037;-63
2022/06/27 03:30:56;;;;;;;11.13;8.02;;;;;;;;;;5031080;28;20497;-63
2022/06/27 03:33:22;;;;;;;10.80;7.68;;;;;;;;;;5026266;28;21344;-63
2022/06/27 03:35:47;;;;;;;10.75;7.40;;;;;;;;;;5031616;28;20033;-64
2022/06/27 03:38:13;;;;;;;10.13;7.40;;;;;;;;;;5028786;28;20041;-63
2022/06/27 03:40:39;;;;;;;9.93;7.75;;;;;;;;;;5030877;28;20155;-63
2022/06/27 03:43:04;;;;;;;12.73;8.07;;;;;;;;;;5031383;28;20040;-63
2022/06/27 03:45:30;;;;;;;9.10;7.75;;;;;;;;;;5014865;28;20034;-63
2022/06/27 03:47:58;;;;;;;10.77;8.25;;;;;;;;;;5023988;28;20112;-63
2022/06/27 03:50:25;;;;;;;13.23;7.85;;;;;;;;;;5031930;28;20037;-64
2022/06/27 03:52:51;;;;;;;10.98;7.32;;;;;;;;;;5032439;28;20033;-63
2022/06/27 03:55:17;;;;;;;9.80;7.50;;;;;;;;;;5030882;28;20425;-63
2022/06/27 03:57:48;;;;;;;11.30;7.78;;;;;;;;;;5032610;28;20048;-63
2022/06/27 04:00:15;;;;;;;9.65;7.80;;;;;;;;;;5029973;28;20038;-63
2022/06/27 04:02:40;;;;;;;11.77;8.25;;;;;;;;;;5025251;28;20040;-63
2022/06/27 04:05:06;;;;;;;13.15;8.20;;;;;;;;;;5021061;28;20421;-63
2022/06/27 04:07:32;;;;;;;10.10;8.15;;;;;;;;;;5025661;28;20061;-67
2022/06/27 04:09:57;;;;;;;10.68;7.82;;;;;;;;;;5031825;28;20898;-64
2022/06/27 04:12:23;;;;;;;11.70;7.95;;;;;;;;;;5029177;28;20068;-63
2022/06/27 04:14:49;;;;;;;10.77;7.97;;;;;;;;;;5012513;28;20451;-62
2022/06/27 04:17:14;;;;;;;13.18;8.27;;;;;;;;;;5024337;28;20398;-63
2022/06/27 04:19:40;;;;;;;10.85;8.15;;;;;;;;;;5031821;28;20060;-63
2022/06/27 04:22:05;;;;;;;15.27;8.63;;;;;;;;;;5031349;28;20029;-64
2022/06/27 04:24:31;;;;;;;12.48;8.63;;;;;;;;;;5031179;28;20034;-63
2022/06/27 04:26:57;;;;;;;10.82;8.30;;;;;;;;;;5030643;28;20595;-63
2022/06/27 04:29:23;;;;;;;11.65;7.93;;;;;;;;;;5032528;28;20033;-63
2022/06/27 04:31:49;;;;;;;11.38;8.85;;;;;;;;;;5031280;28;20035;-63
2022/06/27 04:34:15;;;;;;;10.30;8.15;;;;;;;;;;5014046;28;20514;-63
2022/06/27 04:36:40;;;;;;;11.30;8.43;;;;;;;;;;4994000;28;20037;-63
2022/06/27 04:39:06;;;;;;;10.20;8.77;;;;;;;;;;5012888;28;20034;-63
2022/06/27 04:41:32;;;;;;;12.63;8.80;;;;;;;;;;5030348;28;20032;-63
2022/06/27 04:43:58;;;;;;;13.15;8.90;;;;;;;;;;5029457;28;20087;-64
2022/06/27 04:46:24;;;;;;;15.55;9.60;;;;;;;;;;5014918;28;20033;-64
2022/06/27 04:48:49;;;;;;;12.48;9.60;;;;;;;;;;5030519;28;20037;-64
2022/06/27 04:51:15;;;;;;;15.43;9.95;;;;;;;;;;5028821;28;20041;-65
2022/06/27 04:53:43;;;;;;;12.50;9.85;;;;;;;;;;5031456;28;20490;-65
2022/06/27 04:56:09;;;;;;;15.63;10.88;;;;;;;;;;5031847;28;20470;-65
2022/06/27 04:58:35;;;;;;;17.25;11.57;;;;;;;;;;5029473;28;20475;-65
2022/06/27 05:01:01;;;;;;;16.90;11.57;;;;;;;;;;5030733;28;20034;-65
2022/06/27 05:03:27;;;;;;;18.30;12.13;;;;;;;;;;5031538;28;20524;-65
2022/06/27 05:05:53;;;;;;;20.00;12.02;;;;;;;;;;5031549;28;20029;-65
2022/06/27 05:08:20;;;;;;;17.23;12.38;;;;;;;;;;5027342;28;20056;-65
2022/06/27 05:10:46;;;;;;;17.27;12.93;;;;;;;;;;5028243;28;20041;-65
2022/06/27 05:13:13;;;;;;;16.42;11.85;;;;;;;;;;5021710;28;20064;-59
2022/06/27 05:15:38;;;;;;;17.33;11.15;;;;;;;;;;5030319;28;20177;-60
2022/06/27 05:18:04;;;;;;;18.35;11.82;;;;;;;;;;5030846;28;20115;-60
2022/06/27 05:20:30;;;;;;;18.65;12.07;;;;;;;;;;5023416;28;20034;-59
2022/06/27 05:22:56;;;;;;;16.95;11.95;;;;;;;;;;5017971;28;20492;-60
2022/06/27 05:25:23;;;;;;;15.70;11.60;;;;;;;;;;5014728;28;20437;-59
2022/06/27 05:27:49;;;;;;;14.82;11.23;;;;;;;;;;5029883;28;20033;-58
2022/06/27 05:30:15;;;;;;;15.57;10.77;;;;;;;;;;5028950;28;20033;-61
2022/06/27 05:32:41;;;;;;;18.90;11.80;;;;;;;;;;4995063;28;20026;-60
2022/06/27 05:35:08;;;;;;;16.10;11.25;;;;;;;;;;5014475;28;20069;-60
2022/06/27 05:37:35;;;;;;;15.80;10.52;;;;;;;;;;5025499;28;20474;-60
2022/06/27 05:40:03;;;;;;;16.70;10.52;;;;;;;;;;5028688;28;20037;-59
2022/06/27 05:42:28;;;;;;;14.27;10.57;;;;;;;;;;5029234;28;20091;-60
2022/06/27 05:44:55;;;;;;;13.57;10.10;;;;;;;;;;5029346;28;20021;-60
2022/06/27 05:47:21;;;;;;;13.32;10.27;;;;;;;;;;5022969;28;20095;-59
2022/06/27 05:49:47;;;;;;;15.23;10.55;;;;;;;;;;5011796;28;20049;-60
2022/06/27 05:52:12;;;;;;;13.30;10.40;;;;;;;;;;5031441;28;20037;-60
2022/06/27 05:54:38;;;;;;;11.27;9.13;;;;;;;;;;5029474;28;20080;-59
2022/06/27 05:57:05;;;;;;;13.15;9.48;;;;;;;;;;5030568;28;20041;-59
2022/06/27 05:59:31;;;;;;;11.02;8.68;;;;;;;;;;5030158;28;20029;-59
2022/06/27 06:01:59;;;;;;;10.98;8.52;;;;;;;;;;5026229;28;20444;-60
2022/06/27 06:04:25;;;;;;;11.68;8.40;;;;;;;;;;5028347;28;20113;-60
2022/06/27 06:06:51;;;;;;;9.88;7.85;;;;;;;;;;5028820;28;20454;-59
2022/06/27 06:09:16;;;;;;;12.38;7.55;;;;;;;;;;5030880;28;20037;-59
2022/06/27 06:11:43;;;;;;;10.40;7.65;;;;;;;;;;5035248;28;20112;-60
2022/06/27 06:14:08;;;;;;;8.95;7.38;;;;;;;;;;5029892;28;20037;-59
2022/06/27 06:16:34;;;;;;;9.55;7.00;;;;;;;;;;5019519;28;20030;-59
2022/06/27 06:19:00;;;;;;;8.13;6.72;;;;;;;;;;5030428;28;20469;-59
2022/06/27 06:21:26;;;;;;;8.23;6.63;;;;;;;;;;5017193;28;20091;-63
2022/06/27 06:23:52;;;;;;;12.07;7.93;;;;;;;;;;5034139;28;20111;-62
2022/06/27 06:26:19;;;;;;;8.50;7.03;;;;;;;;;;5033461;28;20455;-64
2022/06/27 06:28:46;;;;;;;12.23;7.35;;;;;;;;;;5032910;28;20041;-59
2022/06/27 06:31:21;;;;;;;11.88;7.47;;;;;;;;;;5033108;28;20533;-60
2022/06/27 06:33:47;;;;;;;8.90;6.75;;;;;;;;;;5033930;28;20029;-60
2022/06/27 06:36:12;;;;;;;9.02;6.35;;;;;;;;;;5032592;28;20032;-63
2022/06/27 06:38:38;;;;;;;9.20;7.28;;;;;;;;;;5034748;28;20374;-61
2022/06/27 06:41:03;;;;;;;10.02;7.72;;;;;;;;;;5032287;28;20034;-64
2022/06/27 06:43:29;;;;;;;9.50;7.30;;;;;;;;;;5034352;28;20076;-60
2022/06/27 06:45:55;;;;;;;9.35;7.57;;;;;;;;;;5010051;28;20041;-60
2022/06/27 06:48:23;;;;;;;11.68;7.82;;;;;;;;;;5014299;28;20030;-60
2022/06/27 06:50:48;;;;;;;13.38;8.52;;;;;;;;;;5022049;28;20040;-60
2022/06/27 06:53:14;;;;;;;11.25;8.43;;;;;;;;;;5031283;28;20393;-59
2022/06/27 06:55:39;;;;;;;10.68;8.40;;;;;;;;;;5019349;28;20041;-58
2022/06/27 06:58:05;;;;;;;14.32;9.13;;;;;;;;;;5023082;28;20037;-59
2022/06/27 07:00:30;;;;;;;12.50;8.57;;;;;;;;;;5032103;28;20044;-59
2022/06/27 07:02:56;;;;;;;13.10;9.00;;;;;;;;;;5032857;28;20037;-60
2022/06/27 07:05:21;;;;;;;10.93;8.88;;;;;;;;;;5027263;28;20030;-61
2022/06/27 07:07:51;;;;;;;13.23;9.73;;;;;;;;;;5028058;28;20030;-59
2022/06/27 07:10:18;;;;;;;14.63;9.48;;;;;;;;;;5025537;28;20064;-58
2022/06/27 07:12:44;;;;;;;12.10;9.23;;;;;;;;;;5025456;28;20133;-59
2022/06/27 07:15:10;;;;;;;10.95;9.05;;;;;;;;;;5022771;28;20040;-59
2022/06/27 07:17:44;;;;;;;11.10;8.65;;;;;;;;;;5023428;28;20117;-59
2022/06/27 07:20:11;;;;;;;12.07;8.68;;;;;;;;;;5032018;28;20018;-59
2022/06/27 07:22:37;;;;;;;12.38;8.70;;;;;;;;;;5026569;28;20026;-59
2022/06/27 07:25:02;;;;;;;12.32;9.02;;;;;;;;;;5021162;28;20041;-59
2022/06/27 07:27:28;;;;;;;13.05;9.40;;;;;;;;;;5033271;28;20033;-59
2022/06/27 07:29:54;;;;;;;12.93;9.00;;;;;;;;;;5026158;28;20036;-59
2022/06/27 07:32:20;;;;;;;13.80;9.02;;;;;;;;;;5032772;28;20030;-59
2022/06/27 07:34:46;;;;;;;13.10;9.25;;;;;;;;;;5027453;28;20398;-59
2022/06/27 07:37:11;;;;;;;11.52;8.93;;;;;;;;;;5029463;28;20033;-60
2022/06/27 07:39:37;;;;;;;12.77;9.63;;;;;;;;;;5032858;28;20038;-59
2022/06/27 07:42:03;;;;;;;10.07;8.90;;;;;;;;;;5032048;28;20033;-59
2022/06/27 07:44:30;;;;;;;12.13;9.02;;;;;;;;;;5027540;28;20489;-58
2022/06/27 07:46:56;;;;;;;12.00;9.25;;;;;;;;;;5017613;28;20210;-60
2022/06/27 07:49:21;;;;;;;12.75;9.48;;;;;;;;;;5029221;28;20429;-58
2022/06/27 07:51:47;;;;;;;12.43;9.95;;;;;;;;;;5032654;28;20033;-59
2022/06/27 07:54:14;;;;;;;13.30;9.80;;;;;;;;;;5030415;28;20053;-59
2022/06/27 07:56:40;;;;;;;14.40;10.20;;;;;;;;;;5007640;28;20108;-59
2022/06/27 07:59:10;;;;;;;12.35;10.00;;;;;;;;;;5030707;28;20052;-62
2022/06/27 08:01:36;;;;;;;15.05;11.05;;;;;;;;;;5013924;28;20029;-61
2022/06/27 08:04:04;;;;;;;12.80;9.95;;;;;;;;;;5031635;28;20109;-61
2022/06/27 08:06:29;;;;;;;16.02;10.15;;;;;;;;;;5028675;28;20033;-62
2022/06/27 08:08:57;;;;;;;14.45;10.60;;;;;;;;;;5028885;28;20029;-61
2022/06/27 08:11:24;;;;;;;14.93;10.23;;;;;;;;;;5027877;28;20034;-60
2022/06/27 08:13:52;;;;;;;15.27;10.95;;;;;;;;;;5024440;28;20033;-61
2022/06/27 08:16:20;;;;;;;14.68;10.27;;;;;;;;;;5028753;28;20037;-61
2022/06/27 08:18:47;;;;;;;13.60;11.07;;;;;;;;;;5031439;28;20493;-60
2022/06/27 08:21:15;;;;;;;16.85;11.23;;;;;;;;;;5030036;28;20100;-60
2022/06/27 08:23:41;;;;;;;15.93;11.27;;;;;;;;;;5032254;28;20164;-60
2022/06/27 08:26:08;;;;;;;15.32;11.35;;;;;;;;;;5030086;28;20480;-61
2022/06/27 08:28:35;;;;;;;14.90;11.70;;;;;;;;;;5029663;28;20382;-61
2022/06/27 08:31:10;;;;;;;15.15;10.60;;;;;;;;;;5028809;28;20395;-58
2022/06/27 08:33:35;;;;;;;16.20;11.48;;;;;;;;;;5025883;28;20540;-59
2022/06/27 08:36:04;;;;;;;15.40;11.88;;;;;;;;;;5028836;28;20216;-59
2022/06/27 08:38:31;;;;;;;15.38;12.40;;;;;;;;;;5029949;28;20367;-59
2022/06/27 08:40:56;;;;;;;16.40;12.60;;;;;;;;;;5023478;28;20462;-60
2022/06/27 08:43:23;;;;;;;16.55;12.50;;;;;;;;;;5031632;28;20041;-60
2022/06/27 08:45:51;;;;;;;19.20;13.38;;;;;;;;;;5030094;28;20116;-61
2022/06/27 08:48:17;;;;;;;17.08;13.15;;;;;;;;;;5031141;28;20033;-61
2022/06/27 08:50:44;;;;;;;18.42;13.30;;;;;;;;;;5028983;28;20111;-60
2022/06/27 08:53:12;;;;;;;18.23;13.90;;;;;;;;;;5030763;28;20049;-61
2022/06/27 08:55:42;;;;;;;17.13;13.60;;;;;;;;;;5029971;28;20033;-60
2022/06/27 08:58:10;;;;;;;20.08;14.43;;;;;;;;;;5030977;28;20037;-60
2022/06/27 09:00:37;;;;;;;18.00;14.30;;;;;;;;;;5028527;28;20425;-57
2022/06/27 09:03:06;;;;;;;21.08;14.07;;;;;;;;;;5030868;28;20029;-60
2022/06/27 09:05:33;;;;;;;20.48;14.50;;;;;;;;;;5029461;28;20025;-59
2022/06/27 09:08:04;;;;;;;18.50;13.75;;;;;;;;;;5022116;28;20053;-61
2022/06/27 09:10:39;;;;;;;18.48;13.82;;;;;;;;;;5026723;28;20125;-61
2022/06/27 09:13:08;;;;;;;18.77;14.32;;;;;;;;;;5029867;28;20053;-61
2022/06/27 09:15:40;;;;;;;19.88;14.73;;;;;;;;;;5001973;28;20048;-61
2022/06/27 09:18:09;;;;;;;18.73;13.68;;;;;;;;;;5010844;28;20056;-61
2022/06/27 09:20:52;;;;;;;20.77;13.68;;;;;;;;;;5021468;28;20040;-60
2022/06/27 09:23:40;;;;;;;20.23;13.13;;;;;;;;;;5030538;28;20077;-58
2022/06/27 09:26:12;;;;;;;16.85;12.52;;;;;;;;;;5029970;28;20041;-58
2022/06/27 09:28:53;;;;;;;16.20;11.77;;;;;;;;;;5027252;28;20509;-60
2022/06/27 09:31:30;;;;;;;16.17;12.13;;;;;;;;;;5026195;28;20037;-59
2022/06/27 09:34:12;;;;;;;14.65;11.82;;;;;;;;;;5029270;28;20041;-60
2022/06/27 09:36:40;;;;;;;14.27;10.43;;;;;;;;;;5031510;28;20112;-60
2022/06/27 09:39:10;;;;;;;14.95;10.43;;;;;;;;;;5029577;28;20037;-60
2022/06/27 09:41:39;;;;;;;14.10;9.98;;;;;;;;;;5030535;28;20067;-60
2022/06/27 09:44:10;;;;;;;15.57;10.05;;;;;;;;;;5032042;28;20045;-59
2022/06/27 09:46:42;;;;;;;13.23;9.80;;;;;;;;;;5032060;28;20033;-58
2022/06/27 09:49:15;;;;;;;12.55;9.30;;;;;;;;;;5034203;28;20033;-58
2022/06/27 09:51:41;;;;;;;12.65;10.05;;;;;;;;;;5031607;28;20044;-57
2022/06/27 09:54:11;;;;;;;12.63;9.77;;;;;;;;;;5014020;28;20407;-59
2022/06/27 09:56:41;;;;;;;12.68;9.70;;;;;;;;;;5016942;28;20065;-60
2022/06/27 09:59:12;;;;;;;15.10;9.57;;;;;;;;;;5033212;28;20044;-60
2022/06/27 10:01:41;;;;;;;12.23;9.80;;;;;;;;;;5033285;28;20536;-61
2022/06/27 10:04:08;;;;;;;11.73;9.65;;;;;;;;;;5032976;28;20041;-61
2022/06/27 10:06:35;;;;;;;11.75;9.10;;;;;;;;;;5032165;28;20033;-61
2022/06/27 10:09:04;;;;;;;11.43;9.48;;;;;;;;;;5031648;28;20029;-62
2022/06/27 10:11:29;;;;;;;12.93;9.50;;;;;;;;;;5031334;28;20033;-59
2022/06/27 10:14:15;;;;;;;11.88;9.20;;;;;;;;;;5034269;28;20037;-59
2022/06/27 10:16:56;;;;;;;12.40;10.55;;;;;;;;;;5030537;28;20107;-60
2022/06/27 10:19:24;;;;;;;12.10;10.23;;;;;;;;;;5015465;28;20037;-61
2022/06/27 10:21:51;;;;;;;13.48;10.60;;;;;;;;;;5034337;28;20041;-59
2022/06/27 10:24:21;;;;;;;13.15;11.20;;;;;;;;;;5031831;28;20021;-58
2022/06/27 10:26:49;;;;;;;14.10;11.07;;;;;;;;;;5034412;28;20124;-59
2022/06/27 10:29:27;;;;;;;12.82;10.90;;;;;;;;;;5024951;28;20033;-64
2022/06/27 10:31:53;;;;;;;18.90;10.98;;;;;;;;;;5014314;28;20474;-61
2022/06/27 10:34:39;;;;;;;13.65;11.50;;;;;;;;;;5014938;28;20192;-63
2022/06/27 10:37:26;;;;;;;13.93;11.20;;;;;;;;;;5028960;28;20117;-62
2022/06/27 10:39:52;;;;;;;14.73;12.93;;;;;;;;;;5027975;28;20026;-62
2022/06/27 10:42:46;;;;;;;15.60;12.82;;;;;;;;;;5033125;28;20612;-60
2022/06/27 10:45:32;;;;;;;15.15;12.88;;;;;;;;;;5031637;28;20079;-59
2022/06/27 10:48:03;;;;;;;14.32;12.50;;;;;;;;;;5014984;28;20132;-63
2022/06/27 10:50:40;;;;;;;15.07;12.95;;;;;;;;;;5030008;28;20046;-58
2022/06/27 10:53:18;;;;;;;15.38;13.20;;;;;;;;;;5031497;28;20476;-63
2022/06/27 10:55:43;;;;;;;14.25;12.00;;;;;;;;;;5032899;28;20040;-59
2022/06/27 10:58:29;;;;;;;14.23;12.10;;;;;;;;;;5031965;28;20448;-60
2022/06/27 11:01:15;;;;;;;13.32;10.90;;;;;;;;;;5031442;28;20037;-58
2022/06/27 11:03:41;;;;;;;13.05;10.88;;;;;;;;;;5033455;28;20068;-58
2022/06/27 11:06:08;;;;;;;11.45;10.25;;;;;;;;;;5031303;28;20065;-58
2022/06/27 11:08:37;;;;;;;11.80;9.50;;;;;;;;;;5028905;28;20088;-58
2022/06/27 11:11:04;;;;;;;13.32;10.43;;;;;;;;;;5024096;28;20040;-59
2022/06/27 11:13:50;;;;;;;10.93;9.52;;;;;;;;;;5028987;28;20033;-59
2022/06/27 11:16:17;;;;;;;12.52;9.48;;;;;;;;;;5028977;28;20466;-60
2022/06/27 11:18:51;;;;;;;9.77;8.77;;;;;;;;;;5033405;28;20025;-58
2022/06/27 11:21:19;;;;;;;12.48;9.20;;;;;;;;;;5021255;28;20057;-60
2022/06/27 11:23:48;;;;;;;15.27;9.38;;;;;;;;;;5029787;28;20047;-57
2022/06/27 11:26:14;;;;;;;11.02;8.80;;;;;;;;;;5020865;28;20030;-59
2022/06/27 11:34:08;;;;;;;8.52;7.07;;;;;;;;;;5025678;28;20063;-59
2022/06/27 11:36:34;;;;;;;13.02;7.40;;;;;;;;;;5032615;28;20037;-58
2022/06/27 11:38:59;;;;;;;11.75;8.07;;;;;;;;;;5017507;28;20455;-68
2022/06/27 11:41:27;;;;;;;10.20;7.45;;;;;;;;;;5031268;28;20041;-61
2022/06/27 11:43:58;;;;;;;8.30;6.78;;;;;;;;;;5032976;28;20079;-62
2022/06/27 11:46:44;;;;;;;9.98;7.03;;;;;;;;;;5011357;28;20064;-64
2022/06/27 11:49:11;;;;;;;10.52;7.82;;;;;;;;;;5028782;28;20044;-58
2022/06/27 11:51:46;;;;;;;9.15;7.10;;;;;;;;;;5031955;28;20389;-58
2022/06/27 11:54:19;;;;;;;9.85;7.68;;;;;;;;;;5021389;28;20111;-58
2022/06/27 11:56:47;;;;;;;13.05;7.95;;;;;;;;;;5018466;28;20041;-59
2022/06/27 11:59:15;;;;;;;9.35;7.60;;;;;;;;;;5030900;28;20036;-61
2022/06/27 12:01:51;;;;;;;8.20;7.25;;;;;;;;;;5014933;28;20053;-59
2022/06/27 12:04:19;;;;;;;10.45;7.60;;;;;;;;;;5020832;28;20099;-59
2022/06/27 12:06:52;;;;;;;10.07;8.02;;;;;;;;;;5026220;28;20076;-58
2022/06/27 12:09:19;;;;;;;9.80;8.07;;;;;;;;;;5021526;28;20045;-58
2022/06/27 12:11:49;;;;;;;10.02;8.05;;;;;;;;;;5026695;28;20038;-58
2022/06/27 12:14:14;;;;;;;10.02;8.40;;;;;;;;;;5023263;28;20490;-58
2022/06/27 12:16:45;;;;;;;9.15;7.80;;;;;;;;;;5031007;28;20057;-61
2022/06/27 12:19:11;;;;;;;10.32;8.60;;;;;;;;;;5028900;28;20082;-62
2022/06/27 12:21:36;;;;;;;9.98;8.10;;;;;;;;;;5030259;28;20055;-62
2022/06/27 12:24:02;;;;;;;10.68;7.75;;;;;;;;;;5025978;28;20064;-64
2022/06/27 12:26:27;;;;;;;8.52;7.15;;;;;;;;;;5030576;28;20048;-61
2022/06/27 12:28:53;;;;;;;8.88;7.20;;;;;;;;;;5027383;28;20393;-61
2022/06/27 12:31:19;;;;;;;7.82;7.03;;;;;;;;;;5030881;28;20108;-62
2022/06/27 12:33:45;;;;;;;9.35;6.80;;;;;;;;;;5029380;28;20254;-62
2022/06/27 12:36:11;;;;;;;8.02;6.72;;;;;;;;;;5020608;28;20038;-63
2022/06/27 12:38:37;;;;;;;9.60;7.03;;;;;;;;;;5030025;28;20041;-62
2022/06/27 12:41:11;;;;;;;10.48;7.28;;;;;;;;;;5029595;28;20100;-64
2022/06/27 12:43:47;;;;;;;10.60;8.02;;;;;;;;;;5031815;28;20397;-63
2022/06/27 12:46:14;;;;;;;10.02;7.40;;;;;;;;;;5028552;28;20434;-63
2022/06/27 12:48:40;;;;;;;10.25;8.05;;;;;;;;;;5016876;28;20079;-62
2022/06/27 12:51:06;;;;;;;10.48;8.75;;;;;;;;;;5028590;28;20075;-62
2022/06/27 12:53:32;;;;;;;10.88;9.20;;;;;;;;;;5029082;28;20046;-63
2022/06/27 12:55:58;;;;;;;10.48;8.50;;;;;;;;;;5031440;28;20048;-63
2022/06/27 12:58:25;;;;;;;12.40;8.68;;;;;;;;;;5019991;28;20069;-63
2022/06/27 13:00:51;;;;;;;10.27;8.95;;;;;;;;;;5012888;28;20069;-63
2022/06/27 13:03:16;;;;;;;13.98;9.93;;;;;;;;;;5011797;28;20095;-62
2022/06/27 13:05:42;;;;;;;10.32;8.85;;;;;;;;;;5029763;28;20029;-63
2022/06/27 13:08:07;;;;;;;10.35;8.55;;;;;;;;;;5029632;28;20041;-62
2022/06/27 13:10:34;;;;;;;10.40;8.15;;;;;;;;;;5029083;28;20029;-62
2022/06/27 13:13:00;;;;;;;8.45;7.18;;;;;;;;;;5031279;28;20029;-63
2022/06/27 13:15:25;;;;;;;10.27;7.85;;;;;;;;;;5029480;28;20102;-62
2022/06/27 13:17:50;;;;;;;10.07;9.05;;;;;;;;;;5029836;28;20404;-62
2022/06/27 13:20:16;;;;;;;11.52;8.88;;;;;;;;;;5032775;28;20112;-62
2022/06/27 13:22:41;;;;;;;10.93;8.80;;;;;;;;;;5035064;28;20040;-62
2022/06/27 13:25:07;;;;;;;12.13;8.93;;;;;;;;;;5034289;28;20032;-62
2022/06/27 13:27:33;;;;;;;10.70;8.60;;;;;;;;;;5032599;28;20025;-62
2022/06/27 13:29:58;;;;;;;10.98;8.65;;;;;;;;;;5034749;28;20091;-63
2022/06/27 13:32:24;;;;;;;10.23;9.13;;;;;;;;;;5028470;28;20186;-64
2022/06/27 13:34:49;;;;;;;11.52;9.63;;;;;;;;;;5035147;28;20044;-62
2022/06/27 13:37:15;;;;;;;9.85;8.18;;;;;;;;;;5029232;28;20039;-62
2022/06/27 13:39:41;;;;;;;9.57;7.63;;;;;;;;;;5034385;28;20103;-62
2022/06/27 13:42:07;;;;;;;8.25;6.65;;;;;;;;;;5014425;28;20037;-61
2022/06/27 13:44:32;;;;;;;9.82;7.85;;;;;;;;;;5034244;28;20064;-62
2022/06/27 13:47:00;;;;;;;8.93;7.75;;;;;;;;;;5034344;28;20428;-62
2022/06/27 13:49:25;;;;;;;14.73;9.40;;;;;;;;;;5034098;28;20116;-61
2022/06/27 13:51:51;;;;;;;13.35;9.20;;;;;;;;;;5034209;28;20461;-62
2022/06/27 13:54:16;;;;;;;9.60;8.40;;;;;;;;;;5034307;28;20057;-61
2022/06/27 13:56:42;;;;;;;11.40;9.13;;;;;;;;;;5034228;28;20363;-63
2022/06/27 13:59:10;;;;;;;8.93;7.85;;;;;;;;;;5031230;28;20159;-62
2022/06/27 14:01:36;;;;;;;10.35;9.27;;;;;;;;;;5028317;28;20030;-62
2022/06/27 14:04:01;;;;;;;11.85;9.30;;;;;;;;;;5033520;28;20117;-63
2022/06/27 14:09:11;;;;;;;12.68;9.40;;;;;;;;;;5013956;28;20500;-63
2022/06/27 14:11:36;;;;;;;11.57;9.85;;;;;;;;;;5032116;28;20029;-63
2022/06/27 14:14:04;;;;;;;10.80;9.65;;;;;;;;;;5030326;28;20096;-64
2022/06/27 14:16:30;;;;;;;10.95;9.13;;;;;;;;;;5014768;28;20359;-62
2022/06/27 14:18:56;;;;;;;12.43;8.30;;;;;;;;;;5029946;28;20057;-64
2022/06/27 14:21:22;;;;;;;13.45;11.27;;;;;;;;;;5017399;28;20057;-64
2022/06/27 14:23:47;;;;;;;15.88;12.10;;;;;;;;;;5026157;28;20025;-63
2022/06/27 14:26:13;;;;;;;13.82;12.32;;;;;;;;;;5032671;28;20501;-63
2022/06/27 14:28:38;;;;;;;17.02;13.65;;;;;;;;;;5033459;28;20457;-62
2022/06/27 14:31:04;;;;;;;14.82;13.30;;;;;;;;;;5027569;28;20075;-63
2022/06/27 14:33:32;;;;;;;16.98;14.80;;;;;;;;;;5028239;28;20030;-63
2022/06/27 14:35:58;;;;;;;16.05;14.32;;;;;;;;;;5018501;28;20101;-63
2022/06/27 14:38:23;;;;;;;17.23;15.38;;;;;;;;;;5020176;28;20022;-62
2022/06/27 14:40:48;;;;;;;19.38;15.10;;;;;;;;;;5032061;28;20498;-62